Archival Weather

Sulphur Springs Muni

Sulphur Springs, Texas (KSLR)

Report from: Thursday, September 21, 2023 9:12 AM CDT
Current time: Saturday, February 24, 2024 9:35 AM CST

Current weather – Weather history – Daily summaries
Weather forecast

Temperature26.0°C (78.8°F)
Dew point21.0°C (69.8°F)
Winds 5 kts (2.6 m/s, 5.8 mph) South-Southeast (160°)
Visibility10 mi. (16.1 km)
Clouds Ceiling: Broken clouds 1,200 ft. (366 m)
Altimeter30.05 in.Hg (1018 mB)
Relative humidity74 %
Density altitude1,460 ft. (445 m)
Remarks Fully automated report
Automated weather observing station with precipitation discriminator
Flight conditions Marginal Visual Meteorological Conditions
Raw dataKSLR 211412Z AUTO 16005KT 10SM BKN012 26/21 A3005 RMK AO2
An error has occurred. This application may no longer respond until reloaded. Reload 🗙